Time;durP1;ratioP1;P1;durP2;ratioP2;P2;SDS_P1;SDS_P2;PMS_P1;PMS_P2;Temp;Humidity;BMP_temperature;BMP_pressure;BME280_temperature;BME280_humidity;BME280_pressure;Samples;Min_cycle;Max_cycle;Signal;HPM_P1;HPM_P2
2022/07/28 00:01:54;;;;;;;2.87;1.20;;;15.40;99.90;;;;;;5079316;28;20728;-39
2022/07/28 00:04:19;;;;;;;4.77;1.20;;;15.40;99.90;;;;;;5079209;28;20217;-40
2022/07/28 00:06:45;;;;;;;3.07;1.00;;;15.40;99.90;;;;;;5077480;28;20229;-41
2022/07/28 00:09:10;;;;;;;1.67;0.90;;;15.30;99.90;;;;;;5076785;28;20175;-40
2022/07/28 00:11:36;;;;;;;1.10;0.90;;;15.40;99.90;;;;;;5076232;28;20210;-40
2022/07/28 00:14:02;;;;;;;3.40;1.30;;;15.30;99.90;;;;;;5076463;28;20231;-41
2022/07/28 00:16:27;;;;;;;2.47;1.20;;;15.30;99.90;;;;;;5076294;28;20249;-40
2022/07/28 00:18:53;;;;;;;4.50;1.03;;;15.30;99.90;;;;;;5076113;28;20186;-40
2022/07/28 00:21:19;;;;;;;7.80;1.77;;;15.30;99.90;;;;;;5077000;28;20257;-39
2022/07/28 00:23:44;;;;;;;3.80;1.10;;;15.30;99.90;;;;;;5074922;28;20266;-40
2022/07/28 00:26:11;;;;;;;2.50;1.00;;;15.20;99.90;;;;;;5076312;28;20175;-40
2022/07/28 00:28:37;;;;;;;2.60;1.00;;;15.20;99.90;;;;;;5076220;28;20175;-41
2022/07/28 00:31:04;;;;;;;2.63;1.10;;;15.20;99.90;;;;;;5076003;28;20207;-41
2022/07/28 00:33:29;;;;;;;4.03;1.00;;;15.10;99.90;;;;;;5076033;28;20647;-41
2022/07/28 00:35:55;;;;;;;2.27;1.20;;;15.10;99.90;;;;;;5075968;28;20178;-41
2022/07/28 00:38:20;;;;;;;2.97;1.20;;;15.10;99.90;;;;;;5075880;28;20692;-41
2022/07/28 00:43:31;;;;;;;5.73;1.00;;;15.00;99.90;;;;;;5075070;28;20213;-40
2022/07/28 00:45:56;;;;;;;3.57;1.30;;;15.00;99.90;;;;;;5075931;28;20547;-39
2022/07/28 00:48:22;;;;;;;4.67;1.07;;;15.00;99.90;;;;;;5075613;28;20176;-39
2022/07/28 00:50:47;;;;;;;2.97;1.30;;;14.90;99.90;;;;;;5075713;28;20206;-39
2022/07/28 00:53:13;;;;;;;3.30;1.10;;;14.90;99.90;;;;;;5075725;28;20190;-39
2022/07/28 00:55:40;;;;;;;6.23;1.33;;;14.90;99.90;;;;;;5074739;28;20554;-40
2022/07/28 00:58:06;;;;;;;7.07;1.27;;;14.90;99.90;;;;;;5075551;28;20678;-40
2022/07/28 01:00:32;;;;;;;4.97;1.47;;;14.90;99.90;;;;;;5075470;28;20243;-40
2022/07/28 01:02:58;;;;;;;5.03;1.10;;;14.80;99.90;;;;;;5076961;28;20271;-43
2022/07/28 01:05:28;;;;;;;2.50;1.10;;;14.80;99.90;;;;;;5074963;28;20195;-41
2022/07/28 01:08:17;;;;;;;4.37;1.13;;;14.90;99.90;;;;;;5075542;28;20255;-40
2022/07/28 01:10:56;;;;;;;9.73;1.20;;;14.80;99.90;;;;;;5075448;28;20226;-38
2022/07/28 01:13:33;;;;;;;3.90;0.90;;;14.80;99.90;;;;;;5075730;28;20615;-43
2022/07/28 01:16:02;;;;;;;6.37;1.00;;;14.80;99.90;;;;;;5078240;28;20225;-43
2022/07/28 01:18:37;;;;;;;5.37;1.20;;;14.80;99.90;;;;;;5079001;28;20610;-44
2022/07/28 01:21:10;;;;;;;2.67;0.90;;;14.70;99.90;;;;;;5078882;28;20268;-44
2022/07/28 01:23:36;;;;;;;2.07;0.77;;;14.80;99.90;;;;;;5079576;28;20199;-42
2022/07/28 01:26:42;;;;;;;4.30;1.20;;;14.70;99.90;;;;;;5079197;28;20180;-43
2022/07/28 01:29:48;;;;;;;3.60;1.10;;;14.70;99.90;;;;;;5065049;28;20710;-44
2022/07/28 01:32:44;;;;;;;8.17;1.30;;;14.70;99.90;;;;;;5078049;28;20530;-44
2022/07/28 01:35:17;;;;;;;2.77;1.00;;;14.70;99.90;;;;;;5082258;28;20187;-42
2022/07/28 01:37:46;;;;;;;1.53;0.83;;;14.70;99.90;;;;;;5081349;28;20163;-44
2022/07/28 01:40:16;;;;;;;6.33;1.43;;;14.80;99.90;;;;;;5077958;28;20203;-43
2022/07/28 01:42:48;;;;;;;3.07;1.00;;;14.70;99.90;;;;;;5079671;28;20160;-42
2022/07/28 01:45:14;;;;;;;4.70;1.20;;;14.70;99.90;;;;;;5079304;28;20222;-43
2022/07/28 01:47:44;;;;;;;2.20;0.97;;;14.80;99.90;;;;;;5078423;28;20635;-43
2022/07/28 01:50:13;;;;;;;4.57;1.00;;;14.70;99.90;;;;;;5078843;28;20200;-44
2022/07/28 01:52:40;;;;;;;4.53;1.37;;;14.70;99.90;;;;;;5078749;28;20265;-43
2022/07/28 01:55:07;;;;;;;4.50;1.20;;;14.70;99.90;;;;;;5077818;28;20168;-43
2022/07/28 01:57:34;;;;;;;3.13;1.30;;;14.70;99.90;;;;;;5076645;28;20259;-44
2022/07/28 02:00:01;;;;;;;10.97;1.43;;;14.60;99.90;;;;;;5077146;28;20564;-43
2022/07/28 02:02:29;;;;;;;3.63;1.00;;;14.60;99.90;;;;;;5077196;28;20199;-43
2022/07/28 02:04:57;;;;;;;4.00;1.03;;;14.60;99.90;;;;;;5078405;28;20240;-43
2022/07/28 02:07:24;;;;;;;3.60;1.37;;;14.60;99.90;;;;;;5078136;28;20174;-43
2022/07/28 02:09:52;;;;;;;2.03;1.10;;;14.60;99.90;;;;;;5079965;28;20184;-44
2022/07/28 02:12:19;;;;;;;3.13;0.90;;;14.60;99.90;;;;;;5079861;28;20179;-43
2022/07/28 02:14:48;;;;;;;2.67;1.10;;;14.60;99.90;;;;;;5079175;28;20244;-43
2022/07/28 02:17:20;;;;;;;2.57;1.07;;;14.50;99.90;;;;;;5078892;28;20665;-43
2022/07/28 02:19:47;;;;;;;4.37;1.07;;;14.60;99.90;;;;;;5077574;28;20196;-40
2022/07/28 02:22:14;;;;;;;2.10;1.00;;;14.50;99.90;;;;;;5076981;28;20210;-40
2022/07/28 02:24:43;;;;;;;3.07;1.33;;;14.50;99.90;;;;;;5079732;28;20200;-39
2022/07/28 02:27:35;;;;;;;4.10;1.33;;;14.50;99.90;;;;;;5077221;28;20180;-39
2022/07/28 02:30:10;;;;;;;2.57;1.10;;;14.50;99.90;;;;;;5073821;28;20198;-38
2022/07/28 02:32:40;;;;;;;3.67;0.90;;;14.40;99.90;;;;;;5072878;28;20181;-40
2022/07/28 02:35:10;;;;;;;3.73;0.90;;;14.50;99.90;;;;;;5074199;28;20156;-40
2022/07/28 02:37:38;;;;;;;1.47;0.90;;;14.40;99.90;;;;;;5073806;28;20274;-41
2022/07/28 02:40:10;;;;;;;9.17;1.20;;;14.40;99.90;;;;;;5073778;28;20203;-39
2022/07/28 02:42:39;;;;;;;2.73;0.97;;;14.40;99.90;;;;;;5073920;28;20233;-41
2022/07/28 02:45:07;;;;;;;4.33;1.00;;;14.30;99.90;;;;;;5073820;28;20172;-41
2022/07/28 02:47:39;;;;;;;1.30;0.80;;;14.30;99.90;;;;;;5073581;28;20175;-41
2022/07/28 02:50:06;;;;;;;3.67;1.10;;;14.30;99.90;;;;;;5073688;28;20261;-41
2022/07/28 02:52:33;;;;;;;4.13;1.00;;;14.20;99.90;;;;;;5073792;28;20182;-41
2022/07/28 02:55:00;;;;;;;3.20;0.80;;;14.10;99.90;;;;;;5073727;28;20267;-40
2022/07/28 02:57:26;;;;;;;1.00;0.73;;;14.10;99.90;;;;;;5073768;28;20209;-40
2022/07/28 02:59:53;;;;;;;2.37;1.13;;;14.00;99.90;;;;;;5073843;28;20288;-40
2022/07/28 03:02:20;;;;;;;3.37;1.00;;;14.00;99.90;;;;;;5073613;28;20191;-39
2022/07/28 03:04:57;;;;;;;1.50;0.90;;;13.90;99.90;;;;;;5072195;28;20541;-38
2022/07/28 03:07:26;;;;;;;5.40;1.40;;;13.90;99.90;;;;;;5073702;28;20683;-39
2022/07/28 03:09:52;;;;;;;3.00;1.00;;;13.80;99.90;;;;;;5073525;28;20187;-40
2022/07/28 03:12:18;;;;;;;3.00;1.13;;;13.70;99.90;;;;;;5073899;28;20176;-39
2022/07/28 03:14:43;;;;;;;1.90;0.93;;;13.70;99.90;;;;;;5074565;28;20190;-37
2022/07/28 03:17:09;;;;;;;2.97;0.90;;;13.70;99.90;;;;;;5073346;28;20761;-40
2022/07/28 03:19:35;;;;;;;3.23;0.90;;;13.60;99.90;;;;;;5074795;28;20725;-38
2022/07/28 03:22:01;;;;;;;4.07;0.90;;;13.60;99.90;;;;;;5077227;28;20660;-39
2022/07/28 03:24:31;;;;;;;3.53;0.80;;;13.50;99.90;;;;;;5077271;28;20187;-39
2022/07/28 03:27:35;;;;;;;7.37;1.07;;;13.40;99.90;;;;;;5079927;28;20172;-40
2022/07/28 03:30:04;;;;;;;2.67;1.03;;;13.40;99.90;;;;;;5077789;28;20319;-40
2022/07/28 03:32:33;;;;;;;3.07;1.00;;;13.30;99.90;;;;;;5077098;28;20712;-39
2022/07/28 03:35:00;;;;;;;3.77;1.03;;;13.30;99.90;;;;;;5077021;28;20555;-38
2022/07/28 03:37:47;;;;;;;2.23;0.90;;;13.20;99.90;;;;;;5077248;28;20189;-39
2022/07/28 03:40:13;;;;;;;2.80;1.10;;;13.20;99.90;;;;;;5076881;28;20195;-37
2022/07/28 03:42:42;;;;;;;1.73;0.93;;;13.10;99.90;;;;;;5077065;28;20302;-40
2022/07/28 03:45:08;;;;;;;2.77;0.97;;;13.00;99.90;;;;;;5077356;28;20281;-40
2022/07/28 03:47:34;;;;;;;3.83;1.03;;;13.00;99.90;;;;;;5076850;28;20196;-39
2022/07/28 03:49:59;;;;;;;4.87;1.00;;;13.00;99.90;;;;;;5077004;28;20203;-40
2022/07/28 03:52:25;;;;;;;6.27;1.27;;;12.90;99.90;;;;;;5078031;28;20258;-40
2022/07/28 03:54:50;;;;;;;5.37;1.60;;;12.90;99.90;;;;;;5076714;28;20263;-37
2022/07/28 03:57:16;;;;;;;4.53;1.30;;;12.90;99.90;;;;;;5076974;28;20628;-40
2022/07/28 03:59:42;;;;;;;2.57;1.03;;;12.90;99.90;;;;;;5077083;28;20285;-38
2022/07/28 04:02:07;;;;;;;1.87;1.13;;;12.80;99.90;;;;;;5076489;28;20221;-40
2022/07/28 04:04:33;;;;;;;3.90;1.20;;;12.80;99.90;;;;;;5076471;28;20187;-40
2022/07/28 04:06:58;;;;;;;6.47;1.40;;;12.80;99.90;;;;;;5076489;28;20179;-41
2022/07/28 04:09:24;;;;;;;3.63;1.00;;;12.70;99.90;;;;;;5075033;28;20187;-40
2022/07/28 04:11:50;;;;;;;4.20;1.30;;;12.70;99.90;;;;;;5076520;28;20554;-39
2022/07/28 04:14:16;;;;;;;3.63;1.10;;;12.70;99.90;;;;;;5076750;28;20187;-42
2022/07/28 04:16:42;;;;;;;2.93;1.17;;;12.70;99.90;;;;;;5076445;28;20530;-42
2022/07/28 04:19:07;;;;;;;4.77;1.10;;;12.70;99.90;;;;;;5076341;28;20194;-42
2022/07/28 04:21:33;;;;;;;5.07;1.00;;;12.70;99.90;;;;;;5076171;28;20778;-42
2022/07/28 04:23:59;;;;;;;2.80;1.10;;;12.60;99.90;;;;;;5076396;28;20182;-43
2022/07/28 04:26:24;;;;;;;6.17;1.53;;;12.60;99.90;;;;;;5074877;28;20178;-42
2022/07/28 04:28:50;;;;;;;4.67;1.40;;;12.50;99.90;;;;;;5075861;28;20211;-42
2022/07/28 04:31:15;;;;;;;3.57;1.20;;;12.50;99.90;;;;;;5075795;28;20259;-42
2022/07/28 04:33:42;;;;;;;4.53;1.10;;;12.50;99.90;;;;;;5079297;28;20206;-44
2022/07/28 04:36:07;;;;;;;4.73;1.53;;;12.50;99.90;;;;;;5075020;28;20188;-43
2022/07/28 04:38:33;;;;;;;2.80;1.20;;;12.50;99.90;;;;;;5074671;28;20179;-42
2022/07/28 04:40:59;;;;;;;4.43;1.03;;;12.40;99.90;;;;;;5075895;28;20211;-42
2022/07/28 04:43:25;;;;;;;2.07;1.20;;;12.40;99.90;;;;;;5076454;28;20209;-42
2022/07/28 04:45:51;;;;;;;7.43;1.57;;;12.40;99.90;;;;;;5076111;28;20186;-42
2022/07/28 04:48:17;;;;;;;2.43;1.13;;;12.40;99.90;;;;;;5080537;28;20172;-42
2022/07/28 04:50:44;;;;;;;3.20;1.20;;;12.40;99.90;;;;;;5082590;28;20261;-42
2022/07/28 04:53:11;;;;;;;4.70;1.43;;;12.50;99.90;;;;;;5077699;28;20182;-42
2022/07/28 04:55:38;;;;;;;3.63;1.40;;;12.50;99.90;;;;;;5077004;28;20188;-43
2022/07/28 04:58:04;;;;;;;3.33;1.50;;;12.50;99.90;;;;;;5079097;28;20529;-43
2022/07/28 05:00:30;;;;;;;8.70;1.50;;;12.60;99.90;;;;;;5079419;28;20210;-42
2022/07/28 05:03:01;;;;;;;4.87;1.23;;;12.70;99.90;;;;;;5078225;28;20183;-43
2022/07/28 05:05:27;;;;;;;2.70;1.10;;;12.70;99.90;;;;;;5080260;28;20200;-43
2022/07/28 05:07:53;;;;;;;9.47;1.67;;;12.80;99.90;;;;;;5079971;28;20686;-42
2022/07/28 05:10:18;;;;;;;5.83;1.50;;;12.90;99.90;;;;;;5081628;28;20832;-43
2022/07/28 05:12:46;;;;;;;5.43;1.67;;;12.90;99.90;;;;;;5080006;28;20183;-42
2022/07/28 05:15:11;;;;;;;6.50;1.53;;;13.10;99.90;;;;;;5076325;28;20536;-41
2022/07/28 05:17:37;;;;;;;8.97;1.67;;;13.10;99.90;;;;;;5076672;28;20179;-40
2022/07/28 05:20:04;;;;;;;7.83;1.60;;;13.20;99.90;;;;;;5075297;28;20200;-40
2022/07/28 05:22:44;;;;;;;5.07;1.47;;;13.40;99.90;;;;;;5075457;28;20287;-43
2022/07/28 05:25:17;;;;;;;7.03;1.30;;;13.40;99.90;;;;;;5077380;28;20622;-44
2022/07/28 05:27:45;;;;;;;6.17;1.50;;;13.60;99.90;;;;;;5075455;28;20168;-43
2022/07/28 05:30:11;;;;;;;9.93;1.80;;;13.60;99.90;;;;;;5075241;28;20202;-41
2022/07/28 05:32:36;;;;;;;4.10;1.77;;;13.70;99.90;;;;;;5075426;28;20186;-43
2022/07/28 05:35:03;;;;;;;5.57;1.60;;;13.70;99.90;;;;;;5074995;28;20179;-41
2022/07/28 05:37:31;;;;;;;16.77;1.80;;;13.70;99.90;;;;;;5073572;28;20183;-43
2022/07/28 05:39:56;;;;;;;4.17;1.40;;;13.80;99.90;;;;;;5073382;28;20200;-44
2022/07/28 05:42:24;;;;;;;8.67;1.73;;;13.80;99.90;;;;;;5074358;28;20204;-43
2022/07/28 05:44:49;;;;;;;7.23;1.70;;;13.80;99.90;;;;;;5074969;28;20175;-43
2022/07/28 05:47:15;;;;;;;7.57;1.50;;;13.90;99.90;;;;;;5074948;28;20266;-42
2022/07/28 05:49:40;;;;;;;6.03;1.60;;;14.00;99.90;;;;;;5074630;28;20612;-43
2022/07/28 05:52:06;;;;;;;9.33;1.87;;;14.00;99.90;;;;;;5074432;28;20233;-43
2022/07/28 05:54:32;;;;;;;8.93;1.77;;;14.00;99.90;;;;;;5073135;28;20180;-42
2022/07/28 05:56:57;;;;;;;5.70;1.93;;;14.10;99.90;;;;;;5074320;28;20195;-43
2022/07/28 05:59:23;;;;;;;5.83;1.50;;;14.20;99.90;;;;;;5074477;28;20218;-43
2022/07/28 06:01:48;;;;;;;2.90;1.33;;;14.30;99.90;;;;;;5074202;28;20200;-43
2022/07/28 06:04:14;;;;;;;5.47;1.83;;;14.30;99.90;;;;;;5074227;28;20187;-42
2022/07/28 06:06:39;;;;;;;7.67;1.80;;;14.40;99.90;;;;;;5074068;28;20180;-43
2022/07/28 06:09:05;;;;;;;10.67;1.83;;;14.40;99.90;;;;;;5074349;28;20278;-42
2022/07/28 06:11:30;;;;;;;7.27;1.63;;;14.50;99.90;;;;;;5074377;28;20207;-43
2022/07/28 06:13:56;;;;;;;8.33;1.63;;;14.60;99.90;;;;;;5074017;28;20532;-43
2022/07/28 06:16:22;;;;;;;7.07;1.83;;;14.60;99.90;;;;;;5074300;28;20172;-42
2022/07/28 06:18:48;;;;;;;9.90;1.63;;;14.70;99.90;;;;;;5073968;28;20234;-43
2022/07/28 06:21:14;;;;;;;4.67;1.53;;;14.70;99.90;;;;;;5073891;28;20200;-42
2022/07/28 06:23:39;;;;;;;8.63;1.57;;;14.80;99.90;;;;;;5074256;28;20179;-43
2022/07/28 06:26:05;;;;;;;5.87;1.67;;;14.80;99.90;;;;;;5074215;28;20185;-42
2022/07/28 06:28:31;;;;;;;5.60;1.83;;;14.90;99.90;;;;;;5078199;28;20202;-43
2022/07/28 06:30:57;;;;;;;6.20;1.83;;;15.00;99.90;;;;;;5074002;28;20279;-42
2022/07/28 06:33:22;;;;;;;8.30;2.00;;;15.00;99.90;;;;;;5074084;28;20191;-42
2022/07/28 06:35:48;;;;;;;4.80;1.97;;;15.00;99.90;;;;;;5074167;28;20258;-42
2022/07/28 06:38:14;;;;;;;9.17;1.80;;;15.00;99.90;;;;;;5074201;28;20187;-42
2022/07/28 06:40:41;;;;;;;8.00;1.90;;;15.10;99.90;;;;;;5073484;28;20569;-44
2022/07/28 06:43:07;;;;;;;6.40;1.93;;;15.10;99.90;;;;;;5074049;28;20181;-42
2022/07/28 06:45:33;;;;;;;9.60;1.90;;;15.20;99.90;;;;;;5074007;28;20652;-43
2022/07/28 06:47:58;;;;;;;13.17;2.23;;;15.20;99.90;;;;;;5073609;28;20193;-43
2022/07/28 06:50:24;;;;;;;5.90;1.83;;;15.20;99.90;;;;;;5078011;28;20195;-43
2022/07/28 06:52:50;;;;;;;6.90;1.90;;;15.40;99.90;;;;;;5073973;28;20184;-42
2022/07/28 06:55:15;;;;;;;12.50;2.13;;;15.50;99.90;;;;;;5074149;28;20566;-43
2022/07/28 06:57:42;;;;;;;13.37;2.00;;;15.60;99.90;;;;;;5074094;28;20278;-43
2022/07/28 07:00:11;;;;;;;5.27;1.90;;;15.80;99.90;;;;;;5077688;28;20203;-43
2022/07/28 07:02:38;;;;;;;9.17;2.27;;;15.90;99.90;;;;;;5074638;28;20294;-42
2022/07/28 07:05:04;;;;;;;8.67;1.97;;;16.10;99.90;;;;;;5074325;28;20679;-42
2022/07/28 07:07:30;;;;;;;13.53;1.87;;;16.30;99.90;;;;;;5074087;28;20250;-43
2022/07/28 07:09:55;;;;;;;9.17;1.83;;;16.40;99.90;;;;;;5077130;28;20195;-43
2022/07/28 07:12:21;;;;;;;4.73;1.63;;;16.50;99.90;;;;;;5082840;28;20219;-44
2022/07/28 07:14:47;;;;;;;13.83;1.93;;;16.70;99.90;;;;;;5080473;28;20184;-43
2022/07/28 07:17:12;;;;;;;3.90;1.60;;;16.80;99.90;;;;;;5080323;28;20187;-43
2022/07/28 07:19:38;;;;;;;8.77;2.27;;;16.90;99.90;;;;;;5080679;28;20203;-42
2022/07/28 07:22:03;;;;;;;7.77;1.93;;;16.90;99.90;;;;;;5079173;28;20601;-43
2022/07/28 07:24:29;;;;;;;4.43;1.53;;;17.00;99.90;;;;;;5075933;28;20187;-42
2022/07/28 07:26:55;;;;;;;4.13;1.60;;;17.20;99.90;;;;;;5073499;28;20179;-42
2022/07/28 07:29:21;;;;;;;6.10;1.83;;;17.20;99.90;;;;;;5073320;28;20186;-43
2022/07/28 07:31:47;;;;;;;8.77;1.80;;;17.40;99.90;;;;;;5073492;28;20195;-42
2022/07/28 07:34:14;;;;;;;7.20;1.47;;;17.50;99.90;;;;;;5073281;28;20179;-43
2022/07/28 07:36:40;;;;;;;4.53;1.27;;;17.50;99.90;;;;;;5075113;28;20187;-44
2022/07/28 07:39:06;;;;;;;7.50;1.63;;;17.40;99.90;;;;;;5073528;28;20184;-43
2022/07/28 07:41:31;;;;;;;6.00;1.50;;;17.40;99.90;;;;;;5071827;28;20242;-43
2022/07/28 07:43:57;;;;;;;3.30;1.60;;;17.40;99.90;;;;;;5074007;28;20198;-42
2022/07/28 07:46:22;;;;;;;3.93;1.30;;;17.50;99.90;;;;;;5074916;28;20238;-43
2022/07/28 07:48:48;;;;;;;5.87;1.70;;;17.50;99.90;;;;;;5075831;28;20206;-42
2022/07/28 07:51:14;;;;;;;9.23;1.53;;;17.50;99.90;;;;;;5075046;28;20203;-42
2022/07/28 07:53:39;;;;;;;5.40;1.57;;;17.60;99.90;;;;;;5074694;28;20248;-43
2022/07/28 07:56:05;;;;;;;4.90;1.40;;;17.70;99.90;;;;;;5074409;28;20208;-42
2022/07/28 07:58:30;;;;;;;3.53;1.30;;;17.80;99.90;;;;;;5073052;28;20175;-43
2022/07/28 08:00:56;;;;;;;8.67;1.57;;;18.00;99.90;;;;;;5073165;28;20219;-40
2022/07/28 08:03:22;;;;;;;10.73;2.07;;;18.00;99.90;;;;;;5075009;28;20560;-44
2022/07/28 08:05:48;;;;;;;5.33;1.50;;;18.20;99.90;;;;;;5076638;28;20184;-44
2022/07/28 08:08:14;;;;;;;9.17;2.07;;;18.40;99.90;;;;;;5078745;28;20746;-43
2022/07/28 08:10:40;;;;;;;13.30;2.03;;;18.60;99.90;;;;;;5078929;28;20191;-44
2022/07/28 08:13:06;;;;;;;9.47;2.57;;;18.50;99.90;;;;;;5080936;28;20540;-44
2022/07/28 08:15:33;;;;;;;9.60;1.93;;;18.70;99.90;;;;;;5081620;28;20540;-43
2022/07/28 08:18:00;;;;;;;5.63;1.60;;;18.80;99.90;;;;;;5078550;28;20172;-44
2022/07/28 08:20:25;;;;;;;4.17;1.47;;;18.90;99.90;;;;;;5076276;28;20691;-43
2022/07/28 08:22:54;;;;;;;6.63;1.93;;;18.90;99.90;;;;;;5077533;28;20278;-44
2022/07/28 08:25:20;;;;;;;7.57;1.97;;;18.90;99.90;;;;;;5078251;28;20671;-44
2022/07/28 08:27:46;;;;;;;12.43;2.17;;;18.90;99.90;;;;;;5079528;28;20184;-43
2022/07/28 08:30:18;;;;;;;5.07;1.60;;;18.90;99.90;;;;;;5079330;28;20200;-44
2022/07/28 08:32:44;;;;;;;4.57;1.80;;;19.00;99.90;;;;;;5078064;28;20210;-43
2022/07/28 08:35:10;;;;;;;4.17;1.90;;;19.10;99.90;;;;;;5079576;28;20215;-44
2022/07/28 08:37:38;;;;;;;6.17;1.73;;;19.20;99.90;;;;;;5080306;28;20205;-42
2022/07/28 08:40:10;;;;;;;5.90;1.83;;;19.30;99.90;;;;;;5081251;28;20663;-44
2022/07/28 08:43:16;;;;;;;4.50;1.50;;;19.40;99.90;;;;;;5080430;28;20192;-43
2022/07/28 08:45:46;;;;;;;2.87;1.73;;;19.50;99.90;;;;;;5046446;28;20196;-40
2022/07/28 08:48:13;;;;;;;4.90;1.37;;;19.70;99.90;;;;;;5075737;28;20179;-40
2022/07/28 08:50:41;;;;;;;4.07;1.37;;;19.60;99.90;;;;;;5075650;28;20617;-39
2022/07/28 08:53:07;;;;;;;4.07;1.50;;;19.80;99.90;;;;;;5076026;28;20674;-39
2022/07/28 08:55:34;;;;;;;3.37;1.50;;;19.80;99.90;;;;;;5075880;28;20179;-39
2022/07/28 08:58:01;;;;;;;5.23;1.40;;;19.90;99.90;;;;;;5074321;28;20184;-40
2022/07/28 09:00:27;;;;;;;4.87;1.20;;;19.90;99.90;;;;;;5075618;28;20210;-36
2022/07/28 09:02:54;;;;;;;5.03;1.20;;;20.00;99.90;;;;;;5075835;28;20195;-39
2022/07/28 09:05:21;;;;;;;9.03;2.03;;;20.10;99.90;;;;;;5075291;28;20635;-38
2022/07/28 09:07:49;;;;;;;5.37;1.37;;;20.20;99.90;;;;;;5075443;28;20572;-39
2022/07/28 09:10:18;;;;;;;7.23;1.20;;;20.30;99.90;;;;;;5075081;28;20663;-37
2022/07/28 09:12:44;;;;;;;5.30;1.30;;;20.50;99.90;;;;;;5075348;28;20548;-39
2022/07/28 09:15:12;;;;;;;5.23;1.70;;;20.70;99.90;;;;;;5075480;28;20298;-39
2022/07/28 09:17:38;;;;;;;3.70;0.90;;;20.90;99.90;;;;;;5075411;28;20186;-43
2022/07/28 09:20:05;;;;;;;4.93;1.40;;;21.10;99.90;;;;;;5076473;28;20691;-43
2022/07/28 09:22:35;;;;;;;5.83;1.37;;;21.20;99.90;;;;;;5077652;28;20701;-43
2022/07/28 09:25:02;;;;;;;4.70;1.50;;;21.40;99.90;;;;;;5076990;28;20171;-44
2022/07/28 09:27:43;;;;;;;5.80;1.30;;;21.30;99.90;;;;;;5078030;28;20187;-45
2022/07/28 09:30:09;;;;;;;7.57;1.83;;;21.30;99.90;;;;;;5078016;28;20191;-43
2022/07/28 09:32:35;;;;;;;5.03;1.17;;;21.30;99.90;;;;;;5076343;28;20205;-43
2022/07/28 09:35:00;;;;;;;5.03;1.30;;;21.30;99.90;;;;;;5075614;28;20643;-39
2022/07/28 09:37:27;;;;;;;7.67;2.20;;;21.40;99.90;;;;;;5075443;28;20229;-43
2022/07/28 09:39:57;;;;;;;3.97;1.10;;;21.40;99.90;;;;;;5073361;28;20199;-42
2022/07/28 09:42:23;;;;;;;6.00;1.47;;;21.40;99.90;;;;;;5074932;28;20195;-42
2022/07/28 09:45:06;;;;;;;4.40;1.20;;;21.50;99.90;;;;;;5074542;28;20175;-42
2022/07/28 09:47:33;;;;;;;4.37;1.20;;;21.60;99.90;;;;;;5074968;28;20259;-44
2022/07/28 09:50:00;;;;;;;8.13;1.40;;;21.70;99.90;;;;;;5075114;28;20214;-42
2022/07/28 09:52:34;;;;;;;3.27;1.17;;;21.70;99.90;;;;;;5073376;28;20202;-42
2022/07/28 09:55:09;;;;;;;3.17;1.37;;;21.80;99.90;;;;;;5075001;28;20171;-42
2022/07/28 09:57:36;;;;;;;3.07;1.10;;;21.90;99.90;;;;;;5074408;28;20186;-43
2022/07/28 10:00:10;;;;;;;3.67;1.30;;;22.10;99.90;;;;;;5075378;28;20196;-44
2022/07/28 10:02:36;;;;;;;4.23;1.70;;;22.20;99.90;;;;;;5074494;28;20325;-42
2022/07/28 10:05:03;;;;;;;3.00;1.27;;;22.20;99.90;;;;;;5074126;28;20187;-45
2022/07/28 10:07:29;;;;;;;7.53;1.30;;;22.20;99.90;;;;;;5074009;28;20270;-44
2022/07/28 10:10:07;;;;;;;2.17;1.10;;;22.30;99.90;;;;;;5074323;28;20200;-43
2022/07/28 10:12:35;;;;;;;4.57;1.10;;;22.50;99.90;;;;;;5074350;28;20168;-44
2022/07/28 10:17:58;;;;;;;6.07;1.63;;;22.60;99.90;;;;;;5074551;28;20179;-42
2022/07/28 10:20:25;;;;;;;6.33;1.50;;;22.50;99.90;;;;;;5073916;28;20191;-42
2022/07/28 10:22:54;;;;;;;8.20;1.30;;;22.40;99.90;;;;;;5074134;28;20199;-44
2022/07/28 10:25:20;;;;;;;3.60;1.43;;;22.40;99.90;;;;;;5073999;28;20179;-44
2022/07/28 10:27:47;;;;;;;5.23;1.10;;;22.50;99.90;;;;;;5073584;28;20178;-43
2022/07/28 10:30:14;;;;;;;5.13;1.63;;;22.70;99.90;;;;;;5075774;28;20245;-44
2022/07/28 10:32:43;;;;;;;4.90;1.50;;;22.90;99.90;;;;;;5076192;28;20639;-45
2022/07/28 10:35:16;;;;;;;6.30;1.70;;;22.90;99.90;;;;;;5077089;28;20179;-44
2022/07/28 10:37:48;;;;;;;5.10;1.50;;;23.00;99.90;;;;;;5076179;28;20187;-42
2022/07/28 10:40:17;;;;;;;5.17;1.20;;;22.90;99.90;;;;;;5077191;28;20223;-42
2022/07/28 10:42:42;;;;;;;7.13;1.27;;;23.00;99.90;;;;;;5075657;28;20195;-43
2022/07/28 10:45:12;;;;;;;9.00;1.20;;;23.10;99.90;;;;;;5076245;28;20187;-45
2022/07/28 10:47:38;;;;;;;3.60;1.23;;;23.10;99.90;;;;;;5076687;28;20176;-43
2022/07/28 10:50:05;;;;;;;7.00;1.27;;;23.10;99.80;;;;;;5074241;28;20195;-42
2022/07/28 10:52:32;;;;;;;3.27;1.17;;;23.20;99.90;;;;;;5073721;28;20180;-44
2022/07/28 10:55:19;;;;;;;2.80;0.97;;;23.20;99.90;;;;;;5073558;28;20268;-44
2022/07/28 10:57:58;;;;;;;2.77;1.20;;;23.30;98.90;;;;;;5073524;28;20515;-43
2022/07/28 11:00:26;;;;;;;1.93;1.00;;;23.50;99.90;;;;;;5073693;28;20191;-44
2022/07/28 11:02:59;;;;;;;6.63;1.50;;;23.80;99.30;;;;;;5073313;28;20195;-43
2022/07/28 11:05:29;;;;;;;3.10;1.30;;;23.80;99.50;;;;;;5073692;28;20232;-44
2022/07/28 11:07:58;;;;;;;4.77;1.03;;;23.70;99.40;;;;;;5073386;28;20174;-43
2022/07/28 11:10:24;;;;;;;3.33;1.00;;;23.80;99.90;;;;;;5073278;28;20187;-44
2022/07/28 11:12:54;;;;;;;6.87;1.40;;;24.00;99.90;;;;;;5073373;28;20172;-43
2022/07/28 11:15:33;;;;;;;2.73;1.00;;;24.20;99.10;;;;;;5073490;28;20190;-44
2022/07/28 11:18:09;;;;;;;1.50;1.00;;;24.40;99.20;;;;;;5073557;28;20213;-45
2022/07/28 11:21:07;;;;;;;3.03;1.17;;;24.60;97.20;;;;;;5073485;28;20723;-43
2022/07/28 11:23:45;;;;;;;3.93;1.40;;;24.60;97.30;;;;;;5050734;28;20198;-43
2022/07/28 11:26:21;;;;;;;6.23;1.43;;;24.50;96.50;;;;;;5071950;28;20175;-44
2022/07/28 11:28:59;;;;;;;6.43;1.10;;;24.40;95.90;;;;;;5071983;28;20230;-44
2022/07/28 11:31:53;;;;;;;1.67;1.07;;;24.60;97.60;;;;;;5073039;28;20207;-44
2022/07/28 11:34:22;;;;;;;4.43;1.27;;;24.70;96.10;;;;;;5064026;28;20188;-44
2022/07/28 11:37:03;;;;;;;4.93;1.13;;;24.80;96.70;;;;;;5073517;28;20180;-44
2022/07/28 11:39:32;;;;;;;5.23;1.40;;;25.00;97.10;;;;;;5073548;28;20651;-41
2022/07/28 11:41:58;;;;;;;7.03;1.37;;;25.00;96.50;;;;;;5075265;28;20214;-42
2022/07/28 11:44:25;;;;;;;7.00;1.63;;;25.20;95.20;;;;;;5077097;28;20171;-45
2022/07/28 11:46:51;;;;;;;6.77;1.60;;;25.30;97.30;;;;;;5077624;28;20175;-43
2022/07/28 11:49:20;;;;;;;3.13;1.30;;;25.40;94.90;;;;;;5077401;28;20262;-42
2022/07/28 11:52:08;;;;;;;5.35;1.17;;;25.20;95.40;;;;;;5076986;28;20226;-41
2022/07/28 11:54:35;;;;;;;2.20;1.03;;;25.20;95.70;;;;;;5076834;28;20178;-42
2022/07/28 11:57:03;;;;;;;4.40;1.25;;;25.30;95.40;;;;;;5075485;28;20666;-42
2022/07/28 11:59:40;;;;;;;7.20;1.17;;;25.40;97.20;;;;;;5076980;28;20175;-44
2022/07/28 12:02:06;;;;;;;4.63;1.55;;;25.70;95.40;;;;;;5076603;28;20191;-42
2022/07/28 12:04:31;;;;;;;5.47;1.25;;;25.80;95.70;;;;;;5076989;28;20210;-43
2022/07/28 12:06:57;;;;;;;4.82;1.40;;;25.90;95.40;;;;;;5076844;28;20265;-38
2022/07/28 12:09:30;;;;;;;4.70;1.10;;;25.80;93.70;;;;;;5076690;28;20175;-38
2022/07/28 12:11:56;;;;;;;5.70;1.73;;;25.60;95.30;;;;;;5076625;28;20210;-39
2022/07/28 12:14:22;;;;;;;2.45;1.45;;;25.60;95.20;;;;;;5076575;28;20535;-39
2022/07/28 12:16:51;;;;;;;3.10;1.42;;;25.50;94.90;;;;;;5076363;28;20195;-40
2022/07/28 12:19:18;;;;;;;8.32;2.13;;;25.60;95.70;;;;;;5076356;28;20269;-39
2022/07/28 12:21:48;;;;;;;5.05;1.80;;;25.70;96.90;;;;;;5076265;28;20203;-37
2022/07/28 12:24:32;;;;;;;4.72;1.25;;;26.00;95.70;;;;;;5076393;28;20167;-40
2022/07/28 12:26:59;;;;;;;2.92;1.15;;;26.10;96.50;;;;;;5077489;28;20156;-40
2022/07/28 12:29:30;;;;;;;4.78;1.42;;;26.30;97.80;;;;;;5077126;28;20191;-38
2022/07/28 12:32:00;;;;;;;4.63;1.58;;;26.50;95.60;;;;;;5076318;28;20681;-40
2022/07/28 12:34:27;;;;;;;5.20;1.40;;;26.50;94.30;;;;;;5076025;28;20171;-38
2022/07/28 12:37:00;;;;;;;3.10;1.30;;;26.50;94.30;;;;;;5075974;28;20179;-40
2022/07/28 12:39:27;;;;;;;4.78;1.45;;;26.50;93.10;;;;;;5075914;28;20166;-38
2022/07/28 12:42:04;;;;;;;5.35;1.20;;;26.20;92.90;;;;;;5075995;28;20217;-39
2022/07/28 12:44:37;;;;;;;5.38;1.30;;;26.20;95.10;;;;;;5075425;28;20175;-39
2022/07/28 12:47:06;;;;;;;5.43;1.33;;;26.40;95.70;;;;;;5075808;28;20164;-39
2022/07/28 12:49:32;;;;;;;3.22;1.48;;;26.50;94.00;;;;;;5075715;28;20640;-41
2022/07/28 12:51:59;;;;;;;1.85;1.20;;;26.50;93.10;;;;;;5075637;28;20191;-39
2022/07/28 12:54:37;;;;;;;3.67;1.27;;;26.50;93.20;;;;;;5075846;28;20179;-37
2022/07/28 12:57:03;;;;;;;4.45;1.25;;;26.60;92.80;;;;;;5074283;28;20186;-39
2022/07/28 12:59:33;;;;;;;5.30;1.20;;;26.60;95.60;;;;;;5077001;28;20179;-39